createdAt,value
2019-01-19T00:03:57.619Z,6.03
2019-01-19T00:06:51.804Z,6.33
2019-01-19T00:12:38.913Z,5.50
2019-01-19T00:15:13.134Z,6.73
2019-01-19T00:17:50.036Z,5.23
2019-01-19T00:23:37.805Z,4.37
2019-01-19T00:26:28.784Z,4.30
2019-01-19T00:29:16.557Z,5.83
2019-01-19T00:31:51.713Z,7.80
2019-01-19T00:34:45.549Z,3.53
2019-01-19T00:37:20.784Z,5.30
2019-01-19T00:43:01.060Z,6.05
2019-01-19T00:45:54.080Z,3.43
2019-01-19T00:48:46.192Z,3.10
2019-01-19T00:51:27.180Z,3.13
2019-01-19T00:54:11.056Z,3.00
2019-01-19T00:56:51.888Z,3.33
2019-01-19T00:59:25.533Z,3.40
2019-01-19T01:05:14.803Z,6.40
2019-01-19T01:08:01.822Z,3.57
2019-01-19T01:10:45.104Z,3.90
2019-01-19T01:13:41.274Z,3.73
2019-01-19T01:19:12.338Z,6.10
2019-01-19T01:22:00.720Z,4.70
2019-01-19T01:24:42.702Z,5.50
2019-01-19T01:30:41.844Z,7.10
2019-01-19T01:33:16.404Z,2.60
2019-01-19T01:39:10.161Z,7.53
2019-01-19T01:44:57.249Z,6.55
2019-01-19T01:50:41.142Z,7.25
2019-01-19T01:53:20.820Z,3.63
2019-01-19T01:55:54.492Z,6.10
2019-01-19T01:58:28.192Z,3.40
2019-01-19T02:01:06.273Z,5.77
2019-01-19T02:03:54.917Z,8.03
2019-01-19T02:06:50.931Z,5.20
2019-01-19T02:09:33.835Z,7.53
2019-01-19T02:12:30.300Z,5.03
2019-01-19T02:21:32.141Z,9.32
2019-01-19T02:24:11.097Z,6.77
2019-01-19T02:29:56.782Z,9.80
2019-01-19T02:32:47.970Z,7.50
2019-01-19T02:35:27.721Z,9.57
2019-01-19T02:41:10.032Z,10.45
2019-01-19T02:43:50.992Z,10.50
2019-01-19T02:49:35.966Z,10.90
2019-01-19T02:55:24.930Z,11.82
2019-01-19T03:04:06.174Z,12.98
2019-01-19T03:16:27.607Z,14.87
2019-01-19T03:22:25.296Z,13.30
2019-01-19T03:25:09.227Z,8.80
2019-01-19T03:27:57.522Z,10.47
2019-01-19T03:33:37.511Z,12.85
2019-01-19T03:36:38.394Z,12.17
2019-01-19T03:39:14.758Z,12.47
2019-01-19T03:41:49.955Z,9.77
2019-01-19T03:44:30.706Z,8.97
2019-01-19T03:47:09.700Z,9.20
2019-01-19T03:52:59.903Z,12.65
2019-01-19T03:55:57.397Z,10.87
2019-01-19T04:01:50.505Z,13.98
2019-01-19T04:04:42.494Z,11.03
2019-01-19T04:10:31.712Z,13.90
2019-01-19T04:13:06.169Z,9.17
2019-01-19T04:16:10.323Z,11.67
2019-01-19T04:18:57.336Z,8.93
2019-01-19T04:21:43.110Z,6.83
2019-01-19T04:25:07.138Z,8.33
2019-01-19T04:27:40.847Z,6.53
2019-01-19T04:30:14.694Z,5.93
2019-01-19T04:32:48.461Z,9.10
2019-01-19T04:35:23.090Z,7.97
2019-01-19T04:37:56.781Z,6.97
2019-01-19T04:40:30.597Z,5.80
2019-01-19T04:43:04.299Z,5.43
2019-01-19T04:45:38.102Z,6.73
2019-01-19T04:48:11.765Z,6.27
2019-01-19T04:50:45.529Z,6.87
2019-01-19T04:53:19.247Z,10.87
2019-01-19T04:55:53.033Z,5.87
2019-01-19T04:58:27.642Z,9.57
2019-01-19T05:01:01.352Z,6.10
2019-01-19T05:03:35.082Z,6.23
2019-01-19T05:06:12.559Z,8.53
2019-01-19T05:08:42.457Z,6.40
2019-01-19T05:11:16.965Z,6.37
2019-01-19T05:13:50.738Z,6.23
2019-01-19T05:16:24.548Z,8.03
2019-01-19T05:18:59.228Z,5.43
2019-01-19T05:21:32.912Z,7.40
2019-01-19T05:24:06.768Z,5.33
2019-01-19T05:26:41.461Z,5.43
2019-01-19T05:29:15.275Z,6.80
2019-01-19T05:31:49.130Z,6.87
2019-01-19T05:34:22.889Z,6.97
2019-01-19T05:36:56.602Z,6.20
2019-01-19T05:39:30.272Z,6.43
2019-01-19T05:42:03.981Z,6.13
2019-01-19T05:44:37.805Z,9.23
2019-01-19T05:47:11.569Z,6.03
2019-01-19T05:49:45.299Z,9.13
2019-01-19T05:52:19.792Z,8.80
2019-01-19T05:54:53.557Z,5.43
2019-01-19T05:57:27.241Z,8.20
2019-01-19T06:00:00.851Z,9.87
2019-01-19T06:02:35.360Z,8.30
2019-01-19T06:05:09.074Z,4.93
2019-01-19T06:07:43.709Z,6.17
2019-01-19T06:10:17.407Z,4.63
2019-01-19T06:12:51.117Z,7.73
2019-01-19T06:15:25.008Z,6.93
2019-01-19T06:17:58.825Z,5.20
2019-01-19T06:20:33.371Z,6.03
2019-01-19T06:23:07.024Z,8.43
2019-01-19T06:25:40.756Z,5.87
2019-01-19T06:28:14.586Z,6.67
2019-01-19T06:30:48.322Z,5.97
2019-01-19T06:33:22.149Z,5.83
2019-01-19T06:35:56.647Z,7.63
2019-01-19T06:38:30.662Z,10.27
2019-01-19T06:41:05.386Z,7.87
2019-01-19T06:43:39.230Z,8.07
2019-01-19T06:46:12.985Z,5.77
2019-01-19T06:48:47.733Z,11.87
2019-01-19T06:51:21.387Z,7.00
2019-01-19T06:54:01.576Z,10.50
2019-01-19T06:56:29.445Z,10.30
2019-01-19T06:59:04.164Z,10.43
2019-01-19T07:01:37.866Z,10.23
2019-01-19T07:04:11.908Z,9.37
2019-01-19T07:06:46.436Z,6.30
2019-01-19T07:09:20.144Z,13.23
2019-01-19T07:11:54.039Z,10.00
2019-01-19T07:14:27.768Z,8.90
2019-01-19T07:17:01.539Z,7.97
2019-01-19T07:19:35.530Z,6.77
2019-01-19T07:22:09.452Z,7.90
2019-01-19T07:24:43.991Z,6.73
2019-01-19T07:27:17.910Z,10.33
2019-01-19T07:29:51.846Z,10.73
2019-01-19T07:32:25.799Z,6.07
2019-01-19T07:34:59.671Z,5.00
2019-01-19T07:37:33.303Z,8.70
2019-01-19T07:40:10.601Z,6.37
2019-01-19T07:42:44.436Z,7.63
2019-01-19T07:45:19.303Z,9.27
2019-01-19T07:47:53.129Z,5.50
2019-01-19T07:50:27.575Z,7.83
2019-01-19T07:53:01.512Z,11.07
2019-01-19T07:55:35.727Z,10.27
2019-01-19T08:23:08.542Z,10.03
2019-01-19T08:33:16.982Z,6.87
2019-01-19T08:35:50.710Z,10.47
2019-01-19T08:38:24.474Z,9.63
2019-01-19T08:40:58.957Z,10.50
2019-01-19T08:43:32.680Z,11.97
2019-01-19T08:46:06.398Z,13.10
2019-01-19T08:48:40.332Z,11.83
2019-01-19T08:51:14.305Z,10.40
2019-01-19T08:53:48.358Z,13.00
2019-01-19T08:56:22.952Z,8.50
2019-01-19T08:58:56.824Z,12.60
2019-01-19T09:01:30.585Z,11.67
2019-01-19T09:04:04.481Z,12.17
2019-01-19T09:06:38.994Z,13.40
2019-01-19T09:09:12.721Z,9.60
2019-01-19T09:11:46.477Z,11.57
2019-01-19T09:14:20.324Z,9.70
2019-01-19T09:16:54.953Z,12.47
2019-01-19T09:19:29.459Z,8.87
2019-01-19T09:22:03.219Z,8.73
2019-01-19T09:24:37.874Z,8.40
2019-01-19T09:27:12.519Z,8.23
2019-01-19T09:29:47.149Z,9.73
2019-01-19T09:32:20.861Z,10.67
2019-01-19T09:34:54.574Z,9.77
2019-01-19T09:37:28.288Z,7.37
2019-01-19T09:40:02.061Z,8.23
2019-01-19T09:42:35.737Z,7.33
2019-01-19T09:45:09.578Z,6.43
2019-01-19T09:47:43.242Z,7.60
2019-01-19T09:50:17.122Z,7.80
2019-01-19T09:52:50.758Z,6.07
2019-01-19T09:55:24.480Z,6.20
2019-01-19T09:57:58.201Z,14.07
2019-01-19T10:00:36.645Z,5.70
2019-01-19T10:03:06.015Z,8.47
2019-01-19T10:05:40.904Z,7.57
2019-01-19T10:08:16.381Z,10.07
2019-01-19T10:10:50.124Z,7.33
2019-01-19T10:13:23.898Z,9.27
2019-01-19T10:15:57.598Z,9.90
2019-01-19T10:18:31.393Z,6.50
2019-01-19T10:21:05.121Z,7.50
2019-01-19T10:23:38.836Z,8.10
2019-01-19T10:26:12.488Z,10.20
2019-01-19T10:28:47.061Z,6.50
2019-01-19T10:31:20.873Z,7.03
2019-01-19T10:33:54.702Z,6.27
2019-01-19T10:36:28.491Z,5.87
2019-01-19T10:39:02.403Z,9.87
2019-01-19T10:41:40.977Z,6.73
2019-01-19T10:44:11.533Z,7.43
2019-01-19T10:46:46.032Z,9.63
2019-01-19T10:49:19.683Z,6.23
2019-01-19T10:51:59.330Z,6.63
2019-01-19T10:54:27.303Z,8.93
2019-01-19T10:57:01.890Z,11.83
2019-01-19T10:59:35.628Z,7.87
2019-01-19T11:02:10.126Z,7.47
2019-01-19T11:04:44.825Z,8.10
2019-01-19T11:07:18.723Z,8.40
2019-01-19T11:09:52.548Z,9.47
2019-01-19T11:12:27.080Z,8.43
2019-01-19T11:15:00.808Z,7.00
2019-01-19T11:17:34.560Z,7.27
2019-01-19T11:20:09.892Z,10.57
2019-01-19T11:22:43.754Z,6.47
2019-01-19T11:25:18.361Z,9.07
2019-01-19T11:27:52.106Z,9.40
2019-01-19T11:30:26.568Z,6.57
2019-01-19T11:33:00.392Z,5.83
2019-01-19T11:35:34.034Z,7.43
2019-01-19T11:38:11.873Z,10.47
2019-01-19T11:40:41.266Z,7.70
2019-01-19T11:43:14.899Z,6.20
2019-01-19T11:45:48.502Z,9.50
2019-01-19T11:48:22.235Z,10.70
2019-01-19T11:50:55.977Z,6.70
2019-01-19T11:53:29.896Z,6.73
2019-01-19T11:56:03.745Z,4.17
2019-01-19T11:58:37.584Z,5.03
2019-01-19T12:01:11.413Z,6.87
2019-01-19T12:03:45.137Z,6.33
2019-01-19T12:06:18.995Z,7.67
2019-01-19T12:08:52.801Z,9.37
2019-01-19T12:11:26.510Z,7.87
2019-01-19T12:14:01.003Z,4.90
2019-01-19T12:16:34.695Z,6.33
2019-01-19T12:19:09.335Z,5.50
2019-01-19T12:21:43.869Z,7.30
2019-01-19T12:24:17.656Z,13.00
2019-01-19T12:26:51.321Z,7.70
2019-01-19T12:29:25.055Z,5.73
2019-01-19T12:31:58.868Z,8.23
2019-01-19T12:34:32.842Z,6.57
2019-01-19T12:37:06.536Z,6.17
2019-01-19T12:39:40.171Z,6.80
2019-01-19T12:42:13.857Z,6.03
2019-01-19T12:44:47.590Z,5.23
2019-01-19T12:47:21.254Z,7.57
2019-01-19T12:49:54.905Z,5.87
2019-01-19T12:52:28.613Z,6.60
2019-01-19T12:55:03.108Z,8.63
2019-01-19T12:57:36.867Z,7.53
2019-01-19T13:00:17.593Z,6.50
2019-01-19T13:02:51.211Z,6.50
2019-01-19T13:05:31.152Z,6.57
2019-01-19T13:08:05.806Z,5.67
2019-01-19T13:10:40.369Z,7.53
2019-01-19T13:13:14.168Z,4.70
2019-01-19T13:16:24.337Z,6.20
2019-01-19T13:19:01.754Z,5.93
2019-01-19T13:24:51.057Z,6.43
2019-01-19T13:27:30.518Z,6.43
2019-01-19T13:33:11.916Z,5.95
2019-01-19T13:36:04.946Z,3.63
2019-01-19T13:41:49.852Z,6.57
2019-01-19T13:44:37.840Z,6.43
2019-01-19T13:47:35.019Z,5.03
2019-01-19T13:50:16.136Z,4.57
2019-01-19T13:56:14.039Z,7.15
2019-01-19T14:02:33.696Z,6.12
2019-01-19T14:05:25.818Z,5.87
2019-01-19T14:11:24.933Z,5.22
2019-01-19T14:14:11.910Z,5.43
2019-01-19T14:17:13.240Z,6.70
2019-01-19T14:19:53.490Z,7.70
2019-01-19T14:25:39.945Z,4.12
2019-01-19T14:28:25.225Z,5.00
2019-01-19T14:31:15.281Z,3.43
2019-01-19T14:34:01.593Z,4.60
2019-01-19T14:36:38.029Z,4.87
2019-01-19T14:39:21.340Z,3.87
2019-01-19T14:42:06.347Z,5.53
2019-01-19T14:48:08.933Z,5.05
2019-01-19T14:53:55.106Z,6.22
2019-01-19T14:59:38.186Z,4.72
2019-01-19T15:02:32.753Z,5.50
2019-01-19T15:05:15.012Z,2.83
2019-01-19T15:07:52.138Z,3.97
2019-01-19T15:10:34.196Z,4.27
2019-01-19T15:16:37.516Z,5.07
2019-01-19T15:19:23.852Z,5.57
2019-01-19T15:22:06.567Z,4.80
2019-01-19T15:24:58.736Z,4.17
2019-01-19T15:28:00.621Z,6.13
2019-01-19T15:30:53.686Z,5.00
2019-01-19T15:33:38.180Z,4.03
2019-01-19T15:39:36.519Z,4.80
2019-01-19T15:42:15.969Z,3.30
2019-01-19T15:48:03.296Z,5.97
2019-01-19T15:50:52.603Z,4.87
2019-01-19T15:53:31.682Z,4.60
2019-01-19T15:56:13.638Z,6.67
2019-01-19T15:59:04.843Z,4.73
2019-01-19T16:05:42.280Z,7.60
2019-01-19T16:11:41.352Z,9.07
2019-01-19T16:14:36.395Z,7.97
2019-01-19T16:17:23.491Z,6.53
2019-01-19T16:20:11.914Z,9.13
2019-01-19T16:22:52.012Z,9.87
2019-01-19T16:25:31.395Z,7.00
2019-01-19T16:31:17.393Z,9.20
2019-01-19T16:37:11.417Z,11.30
2019-01-19T16:40:13.633Z,7.93
2019-01-19T16:43:06.645Z,6.80
2019-01-19T16:45:52.871Z,8.87
2019-01-19T16:48:36.164Z,7.23
2019-01-19T16:51:31.519Z,6.37
2019-01-19T16:57:19.000Z,8.85
2019-01-19T17:03:04.154Z,7.90
2019-01-19T17:05:40.290Z,5.03
2019-01-19T17:08:25.600Z,6.03
2019-01-19T17:14:17.088Z,7.00
2019-01-19T17:17:02.812Z,6.07
2019-01-19T17:29:18.980Z,6.32
2019-01-19T17:32:00.088Z,6.20
2019-01-19T17:34:49.162Z,4.40
2019-01-19T17:37:25.450Z,6.07
2019-01-19T17:43:41.492Z,8.20
2019-01-19T17:58:17.412Z,7.35
2019-01-19T18:04:11.303Z,7.82
2019-01-19T18:07:01.213Z,9.43
2019-01-19T18:09:47.500Z,6.77
2019-01-19T18:12:23.278Z,7.37
2019-01-19T18:18:28.540Z,8.65
2019-01-19T18:21:05.949Z,9.87
2019-01-19T18:26:50.001Z,14.10
2019-01-19T18:29:30.936Z,11.77
2019-01-19T18:32:06.464Z,10.13
2019-01-19T18:34:50.517Z,7.97
2019-01-19T18:37:31.503Z,7.30
2019-01-19T18:40:32.544Z,8.80
2019-01-19T18:46:04.282Z,11.40
2019-01-19T18:48:50.411Z,9.10
2019-01-19T18:51:31.941Z,7.47
2019-01-19T18:54:29.657Z,8.27
2019-01-19T19:03:37.796Z,14.02
2019-01-19T19:06:16.324Z,10.87
2019-01-19T19:09:12.185Z,10.23
2019-01-19T19:11:54.345Z,17.77
2019-01-19T19:14:30.885Z,15.17
2019-01-19T19:17:22.856Z,11.80
2019-01-19T19:20:01.789Z,10.10
2019-01-19T19:22:36.168Z,10.67
2019-01-19T19:25:15.496Z,14.00
2019-01-19T19:31:18.729Z,14.87
2019-01-19T19:33:54.170Z,12.20
2019-01-19T19:36:51.005Z,12.30
2019-01-19T19:39:38.456Z,14.97
2019-01-19T19:42:19.601Z,20.47
2019-01-19T19:48:16.602Z,22.58
2019-01-19T19:51:15.558Z,18.43
2019-01-19T19:53:50.085Z,14.10
2019-01-19T19:56:23.879Z,19.37
2019-01-19T19:58:57.665Z,19.73
2019-01-19T20:01:31.417Z,16.00
2019-01-19T20:04:05.928Z,12.30
2019-01-19T20:06:39.648Z,12.57
2019-01-19T20:09:13.366Z,13.20
2019-01-19T20:11:47.022Z,12.87
2019-01-19T20:14:20.925Z,13.40
2019-01-19T20:16:54.517Z,17.67
2019-01-19T20:19:28.331Z,17.63
2019-01-19T20:22:02.012Z,18.00
2019-01-19T20:24:36.563Z,17.13
2019-01-19T20:27:10.287Z,25.90
2019-01-19T20:29:44.798Z,14.20
2019-01-19T20:32:19.408Z,15.60
2019-01-19T20:34:53.215Z,13.37
2019-01-19T20:37:27.064Z,15.57
2019-01-19T20:40:01.801Z,18.63
2019-01-19T20:42:35.537Z,22.23
2019-01-19T20:45:10.951Z,15.10
2019-01-19T20:47:44.806Z,15.70
2019-01-19T20:50:18.484Z,15.73
2019-01-19T20:52:52.850Z,13.70
2019-01-19T20:55:26.670Z,16.40
2019-01-19T20:58:00.302Z,11.00
2019-01-19T21:00:34.084Z,15.00
2019-01-19T21:03:07.913Z,11.67
2019-01-19T21:05:41.529Z,7.70
2019-01-19T21:08:15.265Z,8.03
2019-01-19T21:10:48.951Z,7.13
2019-01-19T21:13:22.580Z,7.97
2019-01-19T21:15:56.419Z,7.53
2019-01-19T21:18:30.293Z,9.33
2019-01-19T21:21:04.133Z,6.67
2019-01-19T21:23:37.881Z,8.83
2019-01-19T21:26:11.641Z,12.07
2019-01-19T21:28:45.416Z,8.30
2019-01-19T21:31:19.081Z,11.63
2019-01-19T21:33:52.913Z,9.23
2019-01-19T21:36:26.690Z,10.47
2019-01-19T21:39:00.587Z,9.43
2019-01-19T21:41:35.031Z,15.87
2019-01-19T21:44:09.521Z,10.40
2019-01-19T21:46:43.157Z,10.40
2019-01-19T21:49:17.650Z,10.53
2019-01-19T21:51:52.102Z,9.83
2019-01-19T21:54:25.802Z,8.87
2019-01-19T21:56:59.537Z,12.33
2019-01-19T21:59:34.102Z,7.37
2019-01-19T22:02:08.540Z,10.17
2019-01-19T22:04:42.193Z,15.47
2019-01-19T22:07:15.865Z,18.17
2019-01-19T22:09:49.565Z,15.13
2019-01-19T22:12:23.262Z,14.13
2019-01-19T22:14:56.957Z,9.83
2019-01-19T22:17:31.406Z,9.50
2019-01-19T22:20:05.122Z,11.30
2019-01-19T22:22:38.809Z,12.00
2019-01-19T22:25:12.464Z,10.27
2019-01-19T22:27:46.252Z,14.77
2019-01-19T22:30:20.028Z,9.33
2019-01-19T22:32:53.879Z,11.10
2019-01-19T22:36:07.489Z,12.73
2019-01-19T22:38:41.078Z,12.63
2019-01-19T22:41:14.726Z,16.50
2019-01-19T22:43:49.208Z,23.07
2019-01-19T22:46:22.909Z,15.80
2019-01-19T22:48:57.534Z,23.43
2019-01-19T22:51:31.248Z,24.93
2019-01-19T22:54:05.136Z,25.20
2019-01-19T22:56:39.017Z,16.70
2019-01-19T22:59:13.481Z,19.27
2019-01-19T23:01:47.169Z,23.77
2019-01-19T23:04:20.930Z,20.27
2019-01-19T23:06:56.053Z,20.90
2019-01-19T23:09:29.752Z,17.10
2019-01-19T23:12:03.612Z,16.97
2019-01-19T23:14:37.307Z,18.87
2019-01-19T23:17:11.871Z,18.17
2019-01-19T23:19:45.782Z,17.53
2019-01-19T23:22:19.591Z,18.97
2019-01-19T23:24:54.253Z,14.63
2019-01-19T23:27:28.158Z,18.20
2019-01-19T23:30:02.065Z,11.17
2019-01-19T23:32:35.840Z,19.43
2019-01-19T23:35:10.556Z,12.97
2019-01-19T23:37:44.249Z,12.77
2019-01-19T23:40:17.985Z,13.37
2019-01-19T23:42:51.789Z,11.40
2019-01-19T23:45:25.480Z,17.27
2019-01-19T23:47:59.297Z,15.83
2019-01-19T23:50:33.797Z,17.97
2019-01-19T23:53:08.296Z,12.97
2019-01-19T23:55:46.213Z,17.10
2019-01-19T23:58:20.841Z,13.50
